sensor_id;sensor_type;location;lat;lon;timestamp;P1;durP1;ratioP1;P2;durP2;ratioP2
48859;SDS011;34679;51.436;-2.518;2023-03-01T00:02:16;0.40;;;0.40;;
48859;SDS011;34679;51.436;-2.518;2023-03-01T00:04:42;1.88;;;0.50;;
48859;SDS011;34679;51.436;-2.518;2023-03-01T00:07:08;1.23;;;0.52;;
48859;SDS011;34679;51.436;-2.518;2023-03-01T00:09:35;1.05;;;0.77;;
48859;SDS011;34679;51.436;-2.518;2023-03-01T00:12:02;0.32;;;0.32;;
48859;SDS011;34679;51.436;-2.518;2023-03-01T00:14:28;0.50;;;0.50;;
48859;SDS011;34679;51.436;-2.518;2023-03-01T00:16:53;0.30;;;0.30;;
48859;SDS011;34679;51.436;-2.518;2023-03-01T00:19:19;3.22;;;0.40;;
48859;SDS011;34679;51.436;-2.518;2023-03-01T00:21:47;0.55;;;0.32;;
48859;SDS011;34679;51.436;-2.518;2023-03-01T00:24:13;0.43;;;0.43;;
48859;SDS011;34679;51.436;-2.518;2023-03-01T00:26:39;0.30;;;0.30;;
48859;SDS011;34679;51.436;-2.518;2023-03-01T00:29:05;1.30;;;0.32;;
48859;SDS011;34679;51.436;-2.518;2023-03-01T00:31:32;0.65;;;0.28;;
48859;SDS011;34679;51.436;-2.518;2023-03-01T00:33:59;0.20;;;0.20;;
48859;SDS011;34679;51.436;-2.518;2023-03-01T00:36:27;0.25;;;0.22;;
48859;SDS011;34679;51.436;-2.518;2023-03-01T00:38:55;0.90;;;0.50;;
48859;SDS011;34679;51.436;-2.518;2023-03-01T00:41:21;0.20;;;0.20;;
48859;SDS011;34679;51.436;-2.518;2023-03-01T00:43:48;0.57;;;0.35;;
48859;SDS011;34679;51.436;-2.518;2023-03-01T00:46:16;0.98;;;0.50;;
48859;SDS011;34679;51.436;-2.518;2023-03-01T00:48:44;0.73;;;0.30;;
48859;SDS011;34679;51.436;-2.518;2023-03-01T00:51:11;0.82;;;0.82;;
48859;SDS011;34679;51.436;-2.518;2023-03-01T00:53:41;0.30;;;0.30;;
48859;SDS011;34679;51.436;-2.518;2023-03-01T00:56:08;0.50;;;0.28;;
48859;SDS011;34679;51.436;-2.518;2023-03-01T00:58:35;1.30;;;0.50;;
48859;SDS011;34679;51.436;-2.518;2023-03-01T01:01:06;1.27;;;0.47;;
48859;SDS011;34679;51.436;-2.518;2023-03-01T01:03:43;1.88;;;0.45;;
48859;SDS011;34679;51.436;-2.518;2023-03-01T01:06:13;1.75;;;0.43;;
48859;SDS011;34679;51.436;-2.518;2023-03-01T01:08:43;0.80;;;0.55;;
48859;SDS011;34679;51.436;-2.518;2023-03-01T01:11:10;0.47;;;0.40;;
48859;SDS011;34679;51.436;-2.518;2023-03-01T01:13:37;2.00;;;1.05;;
48859;SDS011;34679;51.436;-2.518;2023-03-01T01:16:03;0.73;;;0.50;;
48859;SDS011;34679;51.436;-2.518;2023-03-01T01:18:29;0.85;;;0.50;;
48859;SDS011;34679;51.436;-2.518;2023-03-01T01:20:55;0.50;;;0.40;;
48859;SDS011;34679;51.436;-2.518;2023-03-01T01:23:20;1.88;;;0.40;;
48859;SDS011;34679;51.436;-2.518;2023-03-01T01:25:46;1.15;;;0.30;;
48859;SDS011;34679;51.436;-2.518;2023-03-01T01:28:12;0.88;;;0.30;;
48859;SDS011;34679;51.436;-2.518;2023-03-01T01:30:37;2.28;;;0.77;;
48859;SDS011;34679;51.436;-2.518;2023-03-01T01:33:03;0.63;;;0.50;;
48859;SDS011;34679;51.436;-2.518;2023-03-01T01:35:29;1.85;;;0.40;;
48859;SDS011;34679;51.436;-2.518;2023-03-01T01:37:54;0.20;;;0.20;;
48859;SDS011;34679;51.436;-2.518;2023-03-01T01:40:20;0.45;;;0.30;;
48859;SDS011;34679;51.436;-2.518;2023-03-01T01:42:46;0.77;;;0.30;;
48859;SDS011;34679;51.436;-2.518;2023-03-01T01:45:24;0.40;;;0.32;;
48859;SDS011;34679;51.436;-2.518;2023-03-01T01:47:52;0.30;;;0.30;;
48859;SDS011;34679;51.436;-2.518;2023-03-01T01:50:20;0.50;;;0.30;;
48859;SDS011;34679;51.436;-2.518;2023-03-01T01:52:47;3.70;;;0.45;;
48859;SDS011;34679;51.436;-2.518;2023-03-01T01:55:19;0.38;;;0.38;;
48859;SDS011;34679;51.436;-2.518;2023-03-01T01:57:51;3.20;;;0.50;;
48859;SDS011;34679;51.436;-2.518;2023-03-01T02:00:21;2.00;;;0.40;;
48859;SDS011;34679;51.436;-2.518;2023-03-01T02:02:50;0.75;;;0.30;;
48859;SDS011;34679;51.436;-2.518;2023-03-01T02:07:49;0.80;;;0.30;;
48859;SDS011;34679;51.436;-2.518;2023-03-01T02:10:16;3.30;;;0.40;;
48859;SDS011;34679;51.436;-2.518;2023-03-01T02:12:42;1.27;;;0.40;;
48859;SDS011;34679;51.436;-2.518;2023-03-01T02:15:08;0.82;;;0.30;;
48859;SDS011;34679;51.436;-2.518;2023-03-01T02:17:34;2.67;;;0.60;;
48859;SDS011;34679;51.436;-2.518;2023-03-01T02:22:45;0.40;;;0.40;;
48859;SDS011;34679;51.436;-2.518;2023-03-01T02:30:43;0.57;;;0.57;;
48859;SDS011;34679;51.436;-2.518;2023-03-01T02:33:32;2.08;;;0.52;;
48859;SDS011;34679;51.436;-2.518;2023-03-01T02:36:02;2.75;;;1.00;;
48859;SDS011;34679;51.436;-2.518;2023-03-01T02:39:05;1.08;;;0.90;;
48859;SDS011;34679;51.436;-2.518;2023-03-01T02:41:39;3.17;;;1.00;;
48859;SDS011;34679;51.436;-2.518;2023-03-01T02:44:08;1.50;;;0.98;;
48859;SDS011;34679;51.436;-2.518;2023-03-01T02:46:34;1.15;;;0.90;;
48859;SDS011;34679;51.436;-2.518;2023-03-01T02:49:18;1.05;;;0.85;;
48859;SDS011;34679;51.436;-2.518;2023-03-01T02:54:42;1.15;;;0.93;;
48859;SDS011;34679;51.436;-2.518;2023-03-01T02:57:15;2.92;;;0.95;;
48859;SDS011;34679;51.436;-2.518;2023-03-01T02:59:42;2.50;;;1.13;;
48859;SDS011;34679;51.436;-2.518;2023-03-01T03:02:18;2.85;;;1.15;;
48859;SDS011;34679;51.436;-2.518;2023-03-01T03:04:46;1.73;;;1.40;;
48859;SDS011;34679;51.436;-2.518;2023-03-01T03:07:12;3.25;;;1.23;;
48859;SDS011;34679;51.436;-2.518;2023-03-01T03:09:38;2.10;;;1.27;;
48859;SDS011;34679;51.436;-2.518;2023-03-01T03:12:04;1.83;;;0.75;;
48859;SDS011;34679;51.436;-2.518;2023-03-01T03:14:29;11.05;;;2.72;;
48859;SDS011;34679;51.436;-2.518;2023-03-01T03:16:59;5.25;;;1.30;;
48859;SDS011;34679;51.436;-2.518;2023-03-01T03:19:25;1.85;;;0.98;;
48859;SDS011;34679;51.436;-2.518;2023-03-01T03:21:51;2.80;;;0.75;;
48859;SDS011;34679;51.436;-2.518;2023-03-01T03:24:16;4.93;;;1.42;;
48859;SDS011;34679;51.436;-2.518;2023-03-01T03:26:43;2.65;;;1.73;;
48859;SDS011;34679;51.436;-2.518;2023-03-01T03:29:09;2.30;;;0.98;;
48859;SDS011;34679;51.436;-2.518;2023-03-01T03:31:34;1.85;;;1.30;;
48859;SDS011;34679;51.436;-2.518;2023-03-01T03:34:00;1.67;;;1.15;;
48859;SDS011;34679;51.436;-2.518;2023-03-01T03:36:26;1.38;;;0.93;;
48859;SDS011;34679;51.436;-2.518;2023-03-01T03:38:51;2.30;;;1.67;;
48859;SDS011;34679;51.436;-2.518;2023-03-01T03:41:17;3.55;;;1.70;;
48859;SDS011;34679;51.436;-2.518;2023-03-01T03:43:43;3.88;;;1.30;;
48859;SDS011;34679;51.436;-2.518;2023-03-01T03:46:10;2.58;;;0.93;;
48859;SDS011;34679;51.436;-2.518;2023-03-01T03:48:38;3.80;;;1.35;;
48859;SDS011;34679;51.436;-2.518;2023-03-01T03:51:05;4.32;;;1.00;;
48859;SDS011;34679;51.436;-2.518;2023-03-01T03:53:32;2.90;;;1.08;;
48859;SDS011;34679;51.436;-2.518;2023-03-01T03:55:58;2.65;;;0.90;;
48859;SDS011;34679;51.436;-2.518;2023-03-01T03:58:24;3.45;;;1.45;;
48859;SDS011;34679;51.436;-2.518;2023-03-01T04:00:51;4.55;;;1.05;;
48859;SDS011;34679;51.436;-2.518;2023-03-01T04:03:19;2.28;;;1.35;;
48859;SDS011;34679;51.436;-2.518;2023-03-01T04:05:45;2.65;;;1.02;;
48859;SDS011;34679;51.436;-2.518;2023-03-01T04:08:12;2.20;;;1.20;;
48859;SDS011;34679;51.436;-2.518;2023-03-01T04:10:39;3.42;;;0.93;;
48859;SDS011;34679;51.436;-2.518;2023-03-01T04:13:12;1.73;;;1.20;;
48859;SDS011;34679;51.436;-2.518;2023-03-01T04:15:39;1.25;;;1.15;;
48859;SDS011;34679;51.436;-2.518;2023-03-01T04:18:05;1.23;;;0.80;;
48859;SDS011;34679;51.436;-2.518;2023-03-01T04:20:31;1.65;;;0.80;;
48859;SDS011;34679;51.436;-2.518;2023-03-01T04:23:07;1.30;;;1.20;;
48859;SDS011;34679;51.436;-2.518;2023-03-01T04:25:52;5.75;;;1.00;;
48859;SDS011;34679;51.436;-2.518;2023-03-01T04:30:53;2.05;;;1.15;;
48859;SDS011;34679;51.436;-2.518;2023-03-01T04:33:19;3.30;;;1.15;;
48859;SDS011;34679;51.436;-2.518;2023-03-01T04:35:45;2.83;;;1.02;;
48859;SDS011;34679;51.436;-2.518;2023-03-01T04:38:14;1.35;;;0.98;;
48859;SDS011;34679;51.436;-2.518;2023-03-01T04:40:41;2.28;;;1.30;;
48859;SDS011;34679;51.436;-2.518;2023-03-01T04:43:08;3.60;;;0.90;;
48859;SDS011;34679;51.436;-2.518;2023-03-01T04:45:35;1.58;;;0.77;;
48859;SDS011;34679;51.436;-2.518;2023-03-01T04:48:01;2.83;;;0.80;;
48859;SDS011;34679;51.436;-2.518;2023-03-01T04:50:27;2.10;;;0.93;;
48859;SDS011;34679;51.436;-2.518;2023-03-01T04:52:53;1.17;;;0.60;;
48859;SDS011;34679;51.436;-2.518;2023-03-01T04:55:23;0.88;;;0.88;;
48859;SDS011;34679;51.436;-2.518;2023-03-01T04:57:50;0.70;;;0.70;;
48859;SDS011;34679;51.436;-2.518;2023-03-01T05:00:16;4.57;;;1.45;;
48859;SDS011;34679;51.436;-2.518;2023-03-01T05:02:49;2.85;;;1.13;;
48859;SDS011;34679;51.436;-2.518;2023-03-01T05:07:52;3.42;;;1.10;;
48859;SDS011;34679;51.436;-2.518;2023-03-01T05:10:18;2.08;;;1.15;;
48859;SDS011;34679;51.436;-2.518;2023-03-01T05:12:45;0.77;;;0.77;;
48859;SDS011;34679;51.436;-2.518;2023-03-01T05:15:11;1.67;;;1.40;;
48859;SDS011;34679;51.436;-2.518;2023-03-01T05:17:37;4.75;;;1.05;;
48859;SDS011;34679;51.436;-2.518;2023-03-01T05:20:03;2.15;;;1.10;;
48859;SDS011;34679;51.436;-2.518;2023-03-01T05:22:33;1.50;;;1.30;;
48859;SDS011;34679;51.436;-2.518;2023-03-01T05:25:00;4.00;;;1.45;;
48859;SDS011;34679;51.436;-2.518;2023-03-01T05:27:26;4.68;;;1.23;;
48859;SDS011;34679;51.436;-2.518;2023-03-01T05:29:52;3.67;;;1.30;;
48859;SDS011;34679;51.436;-2.518;2023-03-01T05:32:17;2.65;;;1.00;;
48859;SDS011;34679;51.436;-2.518;2023-03-01T05:34:43;2.03;;;1.00;;
48859;SDS011;34679;51.436;-2.518;2023-03-01T05:37:11;1.52;;;0.98;;
48859;SDS011;34679;51.436;-2.518;2023-03-01T05:39:38;2.08;;;1.33;;
48859;SDS011;34679;51.436;-2.518;2023-03-01T05:42:04;1.85;;;1.38;;
48859;SDS011;34679;51.436;-2.518;2023-03-01T05:44:30;3.05;;;1.23;;
48859;SDS011;34679;51.436;-2.518;2023-03-01T05:46:56;1.52;;;1.33;;
48859;SDS011;34679;51.436;-2.518;2023-03-01T05:49:22;4.90;;;1.83;;
48859;SDS011;34679;51.436;-2.518;2023-03-01T05:51:51;3.03;;;1.63;;
48859;SDS011;34679;51.436;-2.518;2023-03-01T05:54:18;1.88;;;1.58;;
48859;SDS011;34679;51.436;-2.518;2023-03-01T05:56:45;2.17;;;1.60;;
48859;SDS011;34679;51.436;-2.518;2023-03-01T05:59:12;2.53;;;2.03;;
48859;SDS011;34679;51.436;-2.518;2023-03-01T06:01:39;6.00;;;2.03;;
48859;SDS011;34679;51.436;-2.518;2023-03-01T06:04:04;5.78;;;2.28;;
48859;SDS011;34679;51.436;-2.518;2023-03-01T06:06:33;2.85;;;2.47;;
48859;SDS011;34679;51.436;-2.518;2023-03-01T06:09:02;4.10;;;2.30;;
48859;SDS011;34679;51.436;-2.518;2023-03-01T06:11:29;3.42;;;2.35;;
48859;SDS011;34679;51.436;-2.518;2023-03-01T06:13:54;4.43;;;2.55;;
48859;SDS011;34679;51.436;-2.518;2023-03-01T06:16:20;3.42;;;2.78;;
48859;SDS011;34679;51.436;-2.518;2023-03-01T06:18:46;3.70;;;2.33;;
48859;SDS011;34679;51.436;-2.518;2023-03-01T06:21:11;6.47;;;2.90;;
48859;SDS011;34679;51.436;-2.518;2023-03-01T06:23:37;3.55;;;2.72;;
48859;SDS011;34679;51.436;-2.518;2023-03-01T06:26:07;3.92;;;2.58;;
48859;SDS011;34679;51.436;-2.518;2023-03-01T06:28:33;3.42;;;2.20;;
48859;SDS011;34679;51.436;-2.518;2023-03-01T06:30:59;3.17;;;2.88;;
48859;SDS011;34679;51.436;-2.518;2023-03-01T06:33:25;2.45;;;2.25;;
48859;SDS011;34679;51.436;-2.518;2023-03-01T06:35:51;7.07;;;2.65;;
48859;SDS011;34679;51.436;-2.518;2023-03-01T06:38:19;2.95;;;2.55;;
48859;SDS011;34679;51.436;-2.518;2023-03-01T06:40:45;8.38;;;2.78;;
48859;SDS011;34679;51.436;-2.518;2023-03-01T06:43:17;7.00;;;2.78;;
48859;SDS011;34679;51.436;-2.518;2023-03-01T06:45:43;2.90;;;2.55;;
48859;SDS011;34679;51.436;-2.518;2023-03-01T06:48:08;2.97;;;2.50;;
48859;SDS011;34679;51.436;-2.518;2023-03-01T06:50:34;4.65;;;2.50;;
48859;SDS011;34679;51.436;-2.518;2023-03-01T06:53:00;5.20;;;2.60;;
48859;SDS011;34679;51.436;-2.518;2023-03-01T06:55:27;5.00;;;2.60;;
48859;SDS011;34679;51.436;-2.518;2023-03-01T06:58:02;5.80;;;3.15;;
48859;SDS011;34679;51.436;-2.518;2023-03-01T07:00:28;3.17;;;2.88;;
48859;SDS011;34679;51.436;-2.518;2023-03-01T07:02:55;4.30;;;3.35;;
48859;SDS011;34679;51.436;-2.518;2023-03-01T07:05:24;9.65;;;4.32;;
48859;SDS011;34679;51.436;-2.518;2023-03-01T07:07:49;6.75;;;2.92;;
48859;SDS011;34679;51.436;-2.518;2023-03-01T07:10:15;3.83;;;3.03;;
48859;SDS011;34679;51.436;-2.518;2023-03-01T07:12:41;3.28;;;2.60;;
48859;SDS011;34679;51.436;-2.518;2023-03-01T07:15:08;5.28;;;3.70;;
48859;SDS011;34679;51.436;-2.518;2023-03-01T07:17:35;4.13;;;3.35;;
48859;SDS011;34679;51.436;-2.518;2023-03-01T07:20:00;4.90;;;3.03;;
48859;SDS011;34679;51.436;-2.518;2023-03-01T07:22:26;4.20;;;2.67;;
48859;SDS011;34679;51.436;-2.518;2023-03-01T07:24:51;3.28;;;3.00;;
48859;SDS011;34679;51.436;-2.518;2023-03-01T07:27:17;2.70;;;2.50;;
48859;SDS011;34679;51.436;-2.518;2023-03-01T07:29:43;4.10;;;2.80;;
48859;SDS011;34679;51.436;-2.518;2023-03-01T07:32:08;2.55;;;2.35;;
48859;SDS011;34679;51.436;-2.518;2023-03-01T07:34:35;5.75;;;2.40;;
48859;SDS011;34679;51.436;-2.518;2023-03-01T07:37:01;3.40;;;2.28;;
48859;SDS011;34679;51.436;-2.518;2023-03-01T07:39:26;4.05;;;2.20;;
48859;SDS011;34679;51.436;-2.518;2023-03-01T07:41:52;4.00;;;2.60;;
48859;SDS011;34679;51.436;-2.518;2023-03-01T07:44:18;3.30;;;1.90;;
48859;SDS011;34679;51.436;-2.518;2023-03-01T07:46:44;3.28;;;1.50;;
48859;SDS011;34679;51.436;-2.518;2023-03-01T07:49:09;4.28;;;1.30;;
48859;SDS011;34679;51.436;-2.518;2023-03-01T07:51:35;3.20;;;1.42;;
48859;SDS011;34679;51.436;-2.518;2023-03-01T07:54:01;3.20;;;1.58;;
48859;SDS011;34679;51.436;-2.518;2023-03-01T07:56:26;2.55;;;1.42;;
48859;SDS011;34679;51.436;-2.518;2023-03-01T07:58:52;2.20;;;1.00;;
48859;SDS011;34679;51.436;-2.518;2023-03-01T08:01:19;1.88;;;1.23;;
48859;SDS011;34679;51.436;-2.518;2023-03-01T08:03:45;2.97;;;1.35;;
48859;SDS011;34679;51.436;-2.518;2023-03-01T08:06:12;8.73;;;1.40;;
48859;SDS011;34679;51.436;-2.518;2023-03-01T08:08:39;3.28;;;1.30;;
48859;SDS011;34679;51.436;-2.518;2023-03-01T08:11:05;1.48;;;1.20;;
48859;SDS011;34679;51.436;-2.518;2023-03-01T08:13:32;2.08;;;1.13;;
48859;SDS011;34679;51.436;-2.518;2023-03-01T08:16:02;3.10;;;1.17;;
48859;SDS011;34679;51.436;-2.518;2023-03-01T08:18:29;2.00;;;1.02;;
48859;SDS011;34679;51.436;-2.518;2023-03-01T08:20:54;1.75;;;0.70;;
48859;SDS011;34679;51.436;-2.518;2023-03-01T08:23:20;5.65;;;0.82;;
48859;SDS011;34679;51.436;-2.518;2023-03-01T08:25:46;2.45;;;0.95;;
48859;SDS011;34679;51.436;-2.518;2023-03-01T08:28:11;4.18;;;0.90;;
48859;SDS011;34679;51.436;-2.518;2023-03-01T08:30:37;2.42;;;0.88;;
48859;SDS011;34679;51.436;-2.518;2023-03-01T08:33:03;0.57;;;0.52;;
48859;SDS011;34679;51.436;-2.518;2023-03-01T08:35:28;1.95;;;0.55;;
48859;SDS011;34679;51.436;-2.518;2023-03-01T08:37:54;0.77;;;0.77;;
48859;SDS011;34679;51.436;-2.518;2023-03-01T08:40:20;1.40;;;0.63;;
48859;SDS011;34679;51.436;-2.518;2023-03-01T08:42:45;1.10;;;0.63;;
48859;SDS011;34679;51.436;-2.518;2023-03-01T08:45:11;1.95;;;0.70;;
48859;SDS011;34679;51.436;-2.518;2023-03-01T08:47:39;4.30;;;1.52;;
48859;SDS011;34679;51.436;-2.518;2023-03-01T08:50:04;2.38;;;0.43;;
48859;SDS011;34679;51.436;-2.518;2023-03-01T08:52:32;1.20;;;0.50;;
48859;SDS011;34679;51.436;-2.518;2023-03-01T08:54:57;1.67;;;0.60;;
48859;SDS011;34679;51.436;-2.518;2023-03-01T08:57:23;1.17;;;0.57;;
48859;SDS011;34679;51.436;-2.518;2023-03-01T08:59:49;3.05;;;1.13;;
48859;SDS011;34679;51.436;-2.518;2023-03-01T09:02:16;1.15;;;0.70;;
48859;SDS011;34679;51.436;-2.518;2023-03-01T09:04:43;1.77;;;0.40;;
48859;SDS011;34679;51.436;-2.518;2023-03-01T09:07:09;3.00;;;1.10;;
48859;SDS011;34679;51.436;-2.518;2023-03-01T09:09:35;3.28;;;0.70;;
48859;SDS011;34679;51.436;-2.518;2023-03-01T09:12:01;2.42;;;0.60;;
48859;SDS011;34679;51.436;-2.518;2023-03-01T09:14:27;0.93;;;0.68;;
48859;SDS011;34679;51.436;-2.518;2023-03-01T09:16:53;6.68;;;0.90;;
48859;SDS011;34679;51.436;-2.518;2023-03-01T09:19:19;3.95;;;0.80;;
48859;SDS011;34679;51.436;-2.518;2023-03-01T09:21:45;0.70;;;0.50;;
48859;SDS011;34679;51.436;-2.518;2023-03-01T09:24:17;2.83;;;0.60;;
48859;SDS011;34679;51.436;-2.518;2023-03-01T09:26:44;0.73;;;0.63;;
48859;SDS011;34679;51.436;-2.518;2023-03-01T09:29:13;1.20;;;0.57;;
48859;SDS011;34679;51.436;-2.518;2023-03-01T09:31:40;1.90;;;0.70;;
48859;SDS011;34679;51.436;-2.518;2023-03-01T09:34:06;2.45;;;0.73;;
48859;SDS011;34679;51.436;-2.518;2023-03-01T09:36:33;0.93;;;0.65;;
48859;SDS011;34679;51.436;-2.518;2023-03-01T09:38:59;1.17;;;0.88;;
48859;SDS011;34679;51.436;-2.518;2023-03-01T09:41:46;0.90;;;0.43;;
48859;SDS011;34679;51.436;-2.518;2023-03-01T09:44:46;1.80;;;0.60;;
48859;SDS011;34679;51.436;-2.518;2023-03-01T09:47:24;2.30;;;0.73;;
48859;SDS011;34679;51.436;-2.518;2023-03-01T09:55:17;1.85;;;0.80;;
48859;SDS011;34679;51.436;-2.518;2023-03-01T09:57:48;3.58;;;0.77;;
48859;SDS011;34679;51.436;-2.518;2023-03-01T10:10:55;0.45;;;0.45;;
48859;SDS011;34679;51.436;-2.518;2023-03-01T10:16:26;8.18;;;0.98;;
48859;SDS011;34679;51.436;-2.518;2023-03-01T10:18:58;3.60;;;0.60;;
48859;SDS011;34679;51.436;-2.518;2023-03-01T10:21:27;1.63;;;0.90;;
48859;SDS011;34679;51.436;-2.518;2023-03-01T10:23:58;2.67;;;0.68;;
48859;SDS011;34679;51.436;-2.518;2023-03-01T10:32:17;0.20;;;0.20;;
48859;SDS011;34679;51.436;-2.518;2023-03-01T10:34:43;0.47;;;0.47;;
48859;SDS011;34679;51.436;-2.518;2023-03-01T10:37:13;2.63;;;0.50;;
48859;SDS011;34679;51.436;-2.518;2023-03-01T10:42:37;1.30;;;0.40;;
48859;SDS011;34679;51.436;-2.518;2023-03-01T10:51:05;1.95;;;0.60;;
48859;SDS011;34679;51.436;-2.518;2023-03-01T10:53:47;1.00;;;0.63;;
48859;SDS011;34679;51.436;-2.518;2023-03-01T10:56:15;2.15;;;0.90;;
48859;SDS011;34679;51.436;-2.518;2023-03-01T10:58:57;1.17;;;1.08;;
48859;SDS011;34679;51.436;-2.518;2023-03-01T11:01:31;2.22;;;1.00;;
48859;SDS011;34679;51.436;-2.518;2023-03-01T11:04:09;3.15;;;1.40;;
48859;SDS011;34679;51.436;-2.518;2023-03-01T11:06:43;2.60;;;0.80;;
48859;SDS011;34679;51.436;-2.518;2023-03-01T11:09:22;0.77;;;0.77;;
48859;SDS011;34679;51.436;-2.518;2023-03-01T11:11:55;6.30;;;2.38;;
48859;SDS011;34679;51.436;-2.518;2023-03-01T11:14:23;1.58;;;0.82;;
48859;SDS011;34679;51.436;-2.518;2023-03-01T11:17:04;0.80;;;0.80;;
48859;SDS011;34679;51.436;-2.518;2023-03-01T11:22:30;1.02;;;0.73;;
48859;SDS011;34679;51.436;-2.518;2023-03-01T11:24:59;1.67;;;1.33;;
48859;SDS011;34679;51.436;-2.518;2023-03-01T11:27:28;3.78;;;1.13;;
48859;SDS011;34679;51.436;-2.518;2023-03-01T11:30:01;3.03;;;0.90;;
48859;SDS011;34679;51.436;-2.518;2023-03-01T11:32:30;5.65;;;1.30;;
48859;SDS011;34679;51.436;-2.518;2023-03-01T11:35:17;1.40;;;1.30;;
48859;SDS011;34679;51.436;-2.518;2023-03-01T11:40:55;1.77;;;1.52;;
48859;SDS011;34679;51.436;-2.518;2023-03-01T11:43:52;1.55;;;1.42;;
48859;SDS011;34679;51.436;-2.518;2023-03-01T11:52:04;1.60;;;1.50;;
48859;SDS011;34679;51.436;-2.518;2023-03-01T12:08:52;1.50;;;1.40;;
48859;SDS011;34679;51.436;-2.518;2023-03-01T12:22:32;1.95;;;1.17;;
48859;SDS011;34679;51.436;-2.518;2023-03-01T12:44:21;2.88;;;1.52;;
48859;SDS011;34679;51.436;-2.518;2023-03-01T12:49:51;2.00;;;1.35;;
48859;SDS011;34679;51.436;-2.518;2023-03-01T12:55:03;2.90;;;1.17;;
48859;SDS011;34679;51.436;-2.518;2023-03-01T12:57:42;0.93;;;0.85;;
48859;SDS011;34679;51.436;-2.518;2023-03-01T13:00:33;1.20;;;1.10;;
48859;SDS011;34679;51.436;-2.518;2023-03-01T13:11:26;3.55;;;2.55;;
48859;SDS011;34679;51.436;-2.518;2023-03-01T13:13:52;3.28;;;2.60;;
48859;SDS011;34679;51.436;-2.518;2023-03-01T13:19:06;3.13;;;2.45;;
48859;SDS011;34679;51.436;-2.518;2023-03-01T13:21:39;4.05;;;2.65;;
48859;SDS011;34679;51.436;-2.518;2023-03-01T13:24:22;3.30;;;2.80;;
48859;SDS011;34679;51.436;-2.518;2023-03-01T13:34:55;4.07;;;3.33;;
48859;SDS011;34679;51.436;-2.518;2023-03-01T13:37:44;4.18;;;3.10;;
48859;SDS011;34679;51.436;-2.518;2023-03-01T13:42:50;5.53;;;3.70;;
48859;SDS011;34679;51.436;-2.518;2023-03-01T13:45:21;5.43;;;3.40;;
48859;SDS011;34679;51.436;-2.518;2023-03-01T13:50:54;3.80;;;3.08;;
48859;SDS011;34679;51.436;-2.518;2023-03-01T13:53:30;4.45;;;3.38;;
48859;SDS011;34679;51.436;-2.518;2023-03-01T13:56:03;4.38;;;3.83;;
48859;SDS011;34679;51.436;-2.518;2023-03-01T14:01:29;5.50;;;3.28;;
48859;SDS011;34679;51.436;-2.518;2023-03-01T14:03:59;3.35;;;3.05;;
48859;SDS011;34679;51.436;-2.518;2023-03-01T14:06:29;6.65;;;3.72;;
48859;SDS011;34679;51.436;-2.518;2023-03-01T14:09:10;3.83;;;2.92;;
48859;SDS011;34679;51.436;-2.518;2023-03-01T14:12:52;7.10;;;3.78;;
48859;SDS011;34679;51.436;-2.518;2023-03-01T14:15:13;3.42;;;3.13;;
48859;SDS011;34679;51.436;-2.518;2023-03-01T14:20:23;6.25;;;3.80;;
48859;SDS011;34679;51.436;-2.518;2023-03-01T14:22:57;6.25;;;4.22;;
48859;SDS011;34679;51.436;-2.518;2023-03-01T14:25:29;4.85;;;3.88;;
48859;SDS011;34679;51.436;-2.518;2023-03-01T14:28:19;3.60;;;3.28;;
48859;SDS011;34679;51.436;-2.518;2023-03-01T14:30:50;3.50;;;3.20;;
48859;SDS011;34679;51.436;-2.518;2023-03-01T14:33:21;4.57;;;2.55;;
48859;SDS011;34679;51.436;-2.518;2023-03-01T14:36:01;4.85;;;2.95;;
48859;SDS011;34679;51.436;-2.518;2023-03-01T14:41:04;7.82;;;2.60;;
48859;SDS011;34679;51.436;-2.518;2023-03-01T14:43:36;2.90;;;2.33;;
48859;SDS011;34679;51.436;-2.518;2023-03-01T14:46:05;4.75;;;2.40;;
48859;SDS011;34679;51.436;-2.518;2023-03-01T14:48:31;3.25;;;2.55;;
48859;SDS011;34679;51.436;-2.518;2023-03-01T14:50:57;5.20;;;2.60;;
48859;SDS011;34679;51.436;-2.518;2023-03-01T14:53:25;4.65;;;2.53;;
48859;SDS011;34679;51.436;-2.518;2023-03-01T14:55:59;7.15;;;2.22;;
48859;SDS011;34679;51.436;-2.518;2023-03-01T14:58:27;5.97;;;2.35;;
48859;SDS011;34679;51.436;-2.518;2023-03-01T15:01:01;4.03;;;2.80;;
48859;SDS011;34679;51.436;-2.518;2023-03-01T15:03:35;3.08;;;2.60;;
48859;SDS011;34679;51.436;-2.518;2023-03-01T15:06:06;2.95;;;2.42;;
48859;SDS011;34679;51.436;-2.518;2023-03-01T15:08:33;6.00;;;3.50;;
48859;SDS011;34679;51.436;-2.518;2023-03-01T15:13:37;3.10;;;2.78;;
48859;SDS011;34679;51.436;-2.518;2023-03-01T15:16:08;5.88;;;2.83;;
48859;SDS011;34679;51.436;-2.518;2023-03-01T15:18:34;3.38;;;2.47;;
48859;SDS011;34679;51.436;-2.518;2023-03-01T15:21:08;2.55;;;2.10;;
48859;SDS011;34679;51.436;-2.518;2023-03-01T15:23:41;4.28;;;2.25;;
48859;SDS011;34679;51.436;-2.518;2023-03-01T15:26:17;1.58;;;1.45;;
48859;SDS011;34679;51.436;-2.518;2023-03-01T15:28:51;3.92;;;1.85;;
48859;SDS011;34679;51.436;-2.518;2023-03-01T15:31:26;3.97;;;2.08;;
48859;SDS011;34679;51.436;-2.518;2023-03-01T15:34:08;6.07;;;1.80;;
48859;SDS011;34679;51.436;-2.518;2023-03-01T15:39:25;7.93;;;2.45;;
48859;SDS011;34679;51.436;-2.518;2023-03-01T15:41:55;3.78;;;2.65;;
48859;SDS011;34679;51.436;-2.518;2023-03-01T15:46:54;3.85;;;3.00;;
48859;SDS011;34679;51.436;-2.518;2023-03-01T15:49:25;2.80;;;2.60;;
48859;SDS011;34679;51.436;-2.518;2023-03-01T15:52:00;4.40;;;2.25;;
48859;SDS011;34679;51.436;-2.518;2023-03-01T15:54:27;3.25;;;2.17;;
48859;SDS011;34679;51.436;-2.518;2023-03-01T15:56:54;3.45;;;1.95;;
48859;SDS011;34679;51.436;-2.518;2023-03-01T15:59:20;3.65;;;1.98;;
48859;SDS011;34679;51.436;-2.518;2023-03-01T16:01:47;2.65;;;2.25;;
48859;SDS011;34679;51.436;-2.518;2023-03-01T16:04:14;3.95;;;2.13;;
48859;SDS011;34679;51.436;-2.518;2023-03-01T16:06:49;2.75;;;1.95;;
48859;SDS011;34679;51.436;-2.518;2023-03-01T16:09:20;5.78;;;2.00;;
48859;SDS011;34679;51.436;-2.518;2023-03-01T16:11:49;2.85;;;2.17;;
48859;SDS011;34679;51.436;-2.518;2023-03-01T16:14:16;3.38;;;2.22;;
48859;SDS011;34679;51.436;-2.518;2023-03-01T16:16:42;4.25;;;2.33;;
48859;SDS011;34679;51.436;-2.518;2023-03-01T16:19:09;4.22;;;1.83;;
48859;SDS011;34679;51.436;-2.518;2023-03-01T16:21:35;4.13;;;1.75;;
48859;SDS011;34679;51.436;-2.518;2023-03-01T16:24:01;6.03;;;2.20;;
48859;SDS011;34679;51.436;-2.518;2023-03-01T16:26:27;3.30;;;2.25;;
48859;SDS011;34679;51.436;-2.518;2023-03-01T16:28:57;5.03;;;2.70;;
48859;SDS011;34679;51.436;-2.518;2023-03-01T16:31:23;7.35;;;2.97;;
48859;SDS011;34679;51.436;-2.518;2023-03-01T16:33:53;5.85;;;3.00;;
48859;SDS011;34679;51.436;-2.518;2023-03-01T16:36:20;4.50;;;2.63;;
48859;SDS011;34679;51.436;-2.518;2023-03-01T16:38:48;4.88;;;2.97;;
48859;SDS011;34679;51.436;-2.518;2023-03-01T16:41:16;4.78;;;2.63;;
48859;SDS011;34679;51.436;-2.518;2023-03-01T16:43:44;6.35;;;2.70;;
48859;SDS011;34679;51.436;-2.518;2023-03-01T16:49:07;4.78;;;3.03;;
48859;SDS011;34679;51.436;-2.518;2023-03-01T16:51:33;4.97;;;3.25;;
48859;SDS011;34679;51.436;-2.518;2023-03-01T16:54:00;5.18;;;3.63;;
48859;SDS011;34679;51.436;-2.518;2023-03-01T16:56:26;8.15;;;3.83;;
48859;SDS011;34679;51.436;-2.518;2023-03-01T16:58:53;7.43;;;3.72;;
48859;SDS011;34679;51.436;-2.518;2023-03-01T17:01:19;8.05;;;3.42;;
48859;SDS011;34679;51.436;-2.518;2023-03-01T17:03:49;5.75;;;3.53;;
48859;SDS011;34679;51.436;-2.518;2023-03-01T17:06:16;9.18;;;3.78;;
48859;SDS011;34679;51.436;-2.518;2023-03-01T17:08:45;5.55;;;3.58;;
48859;SDS011;34679;51.436;-2.518;2023-03-01T17:11:16;9.52;;;4.60;;
48859;SDS011;34679;51.436;-2.518;2023-03-01T17:13:43;5.88;;;2.83;;
48859;SDS011;34679;51.436;-2.518;2023-03-01T17:16:10;4.43;;;2.67;;
48859;SDS011;34679;51.436;-2.518;2023-03-01T17:18:38;2.85;;;2.13;;
48859;SDS011;34679;51.436;-2.518;2023-03-01T17:21:04;6.07;;;3.00;;
48859;SDS011;34679;51.436;-2.518;2023-03-01T17:23:32;7.43;;;3.30;;